createdAt,value
2023-10-12T00:02:23.717Z,7.17
2023-10-12T00:05:02.590Z,6.93
2023-10-12T00:07:36.893Z,6.40
2023-10-12T00:10:22.259Z,6.10
2023-10-12T00:12:54.741Z,5.53
2023-10-12T00:15:30.611Z,6.50
2023-10-12T00:18:00.743Z,6.70
2023-10-12T00:20:36.709Z,8.07
2023-10-12T00:23:13.064Z,7.03
2023-10-12T00:25:49.869Z,7.83
2023-10-12T00:28:20.541Z,7.20
2023-10-12T00:30:51.154Z,6.10
2023-10-12T00:33:20.156Z,7.20
2023-10-12T00:35:51.774Z,7.10
2023-10-12T00:38:24.630Z,5.40
2023-10-12T00:40:58.733Z,6.97
2023-10-12T00:43:33.302Z,7.40
2023-10-12T00:46:13.954Z,6.43
2023-10-12T00:48:49.011Z,6.70
2023-10-12T00:51:18.591Z,6.80
2023-10-12T00:53:57.028Z,6.30
2023-10-12T00:56:27.290Z,7.13
2023-10-12T00:58:56.839Z,5.87
2023-10-12T01:01:25.757Z,6.17
2023-10-12T01:03:54.542Z,5.80
2023-10-12T01:06:32.029Z,5.07
2023-10-12T01:09:01.652Z,6.87
2023-10-12T01:11:35.510Z,6.67
2023-10-12T01:14:11.108Z,7.20
2023-10-12T01:16:53.397Z,6.27
2023-10-12T01:19:24.763Z,4.53
2023-10-12T01:21:57.120Z,6.13
2023-10-12T01:24:31.569Z,6.50
2023-10-12T01:27:00.742Z,6.87
2023-10-12T01:29:32.314Z,6.50
2023-10-12T01:32:22.566Z,7.03
2023-10-12T01:34:54.382Z,6.00
2023-10-12T01:37:25.777Z,6.40
2023-10-12T01:40:11.876Z,5.47
2023-10-12T01:42:51.430Z,5.70
2023-10-12T01:45:32.803Z,6.23
2023-10-12T01:48:09.013Z,6.13
2023-10-12T01:50:39.384Z,5.20
2023-10-12T01:53:23.420Z,6.70
2023-10-12T01:55:53.209Z,5.47
2023-10-12T01:58:24.500Z,5.20
2023-10-12T02:00:53.850Z,5.30
2023-10-12T02:03:32.524Z,5.77
2023-10-12T02:06:01.071Z,5.87
2023-10-12T02:08:35.707Z,5.73
2023-10-12T02:11:11.829Z,5.20
2023-10-12T02:13:43.000Z,6.10
2023-10-12T02:16:14.071Z,6.33
2023-10-12T02:18:44.390Z,5.30
2023-10-12T02:21:13.411Z,6.20
2023-10-12T02:23:56.232Z,5.30
2023-10-12T02:26:35.768Z,7.30
2023-10-12T02:29:13.637Z,4.90
2023-10-12T02:31:55.255Z,6.40
2023-10-12T02:34:27.119Z,6.00
2023-10-12T02:37:17.548Z,5.77
2023-10-12T02:39:48.379Z,6.30
2023-10-12T02:42:23.772Z,4.93
2023-10-12T02:45:10.162Z,6.87
2023-10-12T02:47:42.210Z,4.60
2023-10-12T02:50:25.646Z,5.03
2023-10-12T02:52:54.135Z,4.90
2023-10-12T02:55:41.897Z,6.20
2023-10-12T02:58:20.313Z,5.20
2023-10-12T03:00:56.645Z,6.47
2023-10-12T03:03:29.131Z,5.70
2023-10-12T03:06:08.569Z,4.43
2023-10-12T03:08:49.191Z,5.80
2023-10-12T03:11:21.466Z,6.40
2023-10-12T03:14:01.207Z,6.03
2023-10-12T03:16:34.974Z,6.33
2023-10-12T03:19:18.690Z,6.03
2023-10-12T03:21:49.336Z,6.37
2023-10-12T03:24:18.214Z,5.93
2023-10-12T03:26:50.639Z,6.30
2023-10-12T03:29:21.551Z,6.63
2023-10-12T03:31:57.801Z,6.17
2023-10-12T03:34:37.011Z,5.93
2023-10-12T03:37:07.413Z,6.20
2023-10-12T03:39:59.779Z,5.43
2023-10-12T03:42:43.029Z,6.20
2023-10-12T03:45:25.198Z,5.10
2023-10-12T03:48:04.965Z,5.73
2023-10-12T03:50:52.732Z,5.63
2023-10-12T03:53:27.877Z,5.63
2023-10-12T03:55:59.293Z,5.07
2023-10-12T03:58:29.501Z,4.03
2023-10-12T04:01:14.004Z,7.70
2023-10-12T04:03:45.370Z,5.70
2023-10-12T04:06:17.202Z,6.17
2023-10-12T04:08:52.678Z,5.10
2023-10-12T04:11:53.203Z,4.87
2023-10-12T04:14:36.553Z,6.03
2023-10-12T04:17:10.498Z,5.17
2023-10-12T04:19:43.577Z,6.70
2023-10-12T04:22:26.362Z,5.87
2023-10-12T04:24:55.758Z,5.70
2023-10-12T04:27:39.947Z,6.83
2023-10-12T04:30:28.441Z,5.50
2023-10-12T04:33:15.883Z,5.90
2023-10-12T04:36:11.002Z,6.33
2023-10-12T04:38:59.828Z,6.30
2023-10-12T04:41:39.482Z,5.53
2023-10-12T04:44:34.069Z,4.47
2023-10-12T04:47:06.986Z,5.37
2023-10-12T04:49:53.951Z,5.23
2023-10-12T04:52:34.005Z,5.53
2023-10-12T04:55:18.842Z,5.33
2023-10-12T04:58:07.473Z,5.47
2023-10-12T05:00:49.452Z,5.53
2023-10-12T05:03:35.621Z,4.70
2023-10-12T05:06:09.768Z,6.00
2023-10-12T05:08:38.470Z,6.60
2023-10-12T05:11:10.203Z,6.60
2023-10-12T05:13:45.230Z,6.03
2023-10-12T05:16:15.867Z,5.50
2023-10-12T05:18:48.754Z,7.77
2023-10-12T05:21:17.285Z,6.03
2023-10-12T05:23:45.774Z,6.70
2023-10-12T05:26:15.442Z,6.70
2023-10-12T05:29:03.366Z,5.80
2023-10-12T05:31:40.619Z,6.93
2023-10-12T05:34:27.791Z,6.07
2023-10-12T05:36:55.929Z,6.80
2023-10-12T05:39:24.069Z,7.13
2023-10-12T05:41:57.941Z,8.43
2023-10-12T05:44:27.970Z,8.67
2023-10-12T05:47:01.586Z,6.63
2023-10-12T05:49:36.708Z,6.97
2023-10-12T05:52:07.393Z,6.73
2023-10-12T05:54:36.282Z,6.70
2023-10-12T05:57:20.158Z,7.57
2023-10-12T05:59:48.953Z,5.83
2023-10-12T06:02:19.273Z,5.60
2023-10-12T06:04:49.166Z,5.53
2023-10-12T06:07:17.473Z,6.40
2023-10-12T06:09:45.600Z,6.53
2023-10-12T06:12:19.065Z,6.80
2023-10-12T06:14:54.398Z,6.47
2023-10-12T06:17:31.990Z,6.00
2023-10-12T06:20:11.952Z,6.97
2023-10-12T06:22:40.268Z,6.10
2023-10-12T06:25:12.811Z,6.03
2023-10-12T06:27:41.118Z,6.83
2023-10-12T06:30:19.818Z,7.40
2023-10-12T06:32:49.955Z,7.53
2023-10-12T06:35:27.330Z,5.90
2023-10-12T06:38:18.015Z,6.20
2023-10-12T06:40:59.954Z,5.23
2023-10-12T06:43:45.282Z,5.87
2023-10-12T06:46:17.069Z,7.87
2023-10-12T06:48:48.475Z,7.43
2023-10-12T06:51:18.040Z,7.73
2023-10-12T06:53:53.432Z,11.60
2023-10-12T06:56:28.149Z,7.63
2023-10-12T06:59:10.368Z,8.87
2023-10-12T07:01:52.446Z,5.37
2023-10-12T07:04:26.989Z,10.53
2023-10-12T07:07:01.743Z,15.90
2023-10-12T07:09:40.736Z,16.30
2023-10-12T07:12:11.687Z,7.70
2023-10-12T07:14:44.421Z,8.50
2023-10-12T07:17:12.532Z,6.77
2023-10-12T07:19:42.251Z,7.63
2023-10-12T07:22:16.716Z,8.60
2023-10-12T07:24:45.681Z,6.60
2023-10-12T07:27:19.132Z,5.80
2023-10-12T07:29:49.074Z,7.37
2023-10-12T07:32:32.011Z,7.60
2023-10-12T07:35:08.234Z,7.60
2023-10-12T07:37:42.448Z,8.63
2023-10-12T07:40:20.364Z,8.00
2023-10-12T07:42:49.346Z,7.20
2023-10-12T07:45:18.495Z,12.93
2023-10-12T07:48:00.374Z,9.73
2023-10-12T07:50:31.814Z,7.23
2023-10-12T07:53:16.163Z,8.60
2023-10-12T07:55:44.391Z,8.33
2023-10-12T07:58:14.404Z,10.43
2023-10-12T08:00:43.227Z,9.40
2023-10-12T08:03:21.153Z,9.20
2023-10-12T08:06:06.168Z,10.83
2023-10-12T08:08:36.678Z,10.03
2023-10-12T08:11:17.251Z,9.13
2023-10-12T08:13:50.282Z,11.53
2023-10-12T08:16:26.726Z,12.60
2023-10-12T08:19:12.703Z,9.67
2023-10-12T08:21:43.056Z,10.10
2023-10-12T08:24:23.442Z,13.10
2023-10-12T08:26:58.970Z,10.20
2023-10-12T08:29:44.720Z,10.23
2023-10-12T08:32:26.811Z,12.10
2023-10-12T08:35:32.862Z,10.90
2023-10-12T08:38:17.436Z,17.10
2023-10-12T08:41:18.481Z,17.40
2023-10-12T08:43:49.807Z,16.10
2023-10-12T08:46:38.601Z,16.83
2023-10-12T08:49:25.253Z,15.80
2023-10-12T08:52:09.258Z,15.33
2023-10-12T08:54:39.431Z,17.60
2023-10-12T08:57:19.354Z,14.60
2023-10-12T09:00:02.714Z,13.33
2023-10-12T09:02:30.822Z,13.77
2023-10-12T09:05:00.408Z,16.20
2023-10-12T09:07:41.724Z,13.53
2023-10-12T09:10:29.733Z,14.10
2023-10-12T09:12:59.239Z,14.57
2023-10-12T09:15:39.518Z,16.70
2023-10-12T09:18:10.938Z,13.77
2023-10-12T09:20:46.835Z,14.37
2023-10-12T09:23:18.790Z,17.90
2023-10-12T09:26:16.649Z,12.60
2023-10-12T09:29:05.001Z,15.67
2023-10-12T09:31:58.227Z,13.43
2023-10-12T09:34:43.947Z,11.83
2023-10-12T09:37:18.642Z,12.37
2023-10-12T09:39:47.857Z,16.77
2023-10-12T09:42:31.423Z,13.93
2023-10-12T09:45:07.902Z,15.40
2023-10-12T09:47:51.937Z,12.80
2023-10-12T09:50:28.500Z,13.50
2023-10-12T09:53:00.745Z,14.30
2023-10-12T09:55:37.877Z,17.13
2023-10-12T09:58:16.050Z,12.90
2023-10-12T10:01:02.822Z,14.87
2023-10-12T10:03:38.921Z,13.53
2023-10-12T10:06:20.262Z,14.53
2023-10-12T10:09:05.593Z,17.27
2023-10-12T10:11:34.921Z,15.57
2023-10-12T10:14:04.355Z,10.17
2023-10-12T10:16:47.294Z,14.77
2023-10-12T10:19:17.949Z,13.53
2023-10-12T10:21:53.277Z,15.47
2023-10-12T10:24:26.005Z,12.80
2023-10-12T10:26:59.661Z,13.80
2023-10-12T10:29:47.202Z,12.47
2023-10-12T10:32:17.716Z,14.33
2023-10-12T10:34:46.078Z,13.27
2023-10-12T10:37:16.374Z,14.67
2023-10-12T10:39:45.638Z,13.73
2023-10-12T10:42:15.343Z,14.00
2023-10-12T10:44:44.086Z,17.33
2023-10-12T10:47:16.763Z,14.23
2023-10-12T10:49:50.520Z,14.23
2023-10-12T10:52:21.665Z,15.07
2023-10-12T10:55:01.833Z,13.10
2023-10-12T10:57:39.404Z,13.13
2023-10-12T11:00:16.157Z,16.70
2023-10-12T11:02:48.619Z,16.43
2023-10-12T11:05:20.886Z,15.23
2023-10-12T11:07:52.237Z,17.93
2023-10-12T11:10:32.704Z,15.40
2023-10-12T11:13:01.986Z,17.07
2023-10-12T11:15:30.290Z,14.60
2023-10-12T11:17:58.776Z,13.87
2023-10-12T11:20:46.575Z,16.73
2023-10-12T11:23:16.327Z,16.10
2023-10-12T11:25:44.890Z,17.60
2023-10-12T11:28:23.444Z,17.73
2023-10-12T11:30:53.694Z,15.90
2023-10-12T11:33:29.663Z,11.83
2023-10-12T11:36:04.928Z,14.57
2023-10-12T11:38:33.497Z,15.83
2023-10-12T11:41:14.952Z,15.40
2023-10-12T11:43:54.512Z,16.90
2023-10-12T11:46:24.935Z,16.50
2023-10-12T11:49:03.499Z,17.63
2023-10-12T11:51:33.162Z,16.10
2023-10-12T11:54:02.026Z,13.60
2023-10-12T11:56:30.825Z,13.60
2023-10-12T11:58:58.912Z,12.60
2023-10-12T12:01:31.589Z,16.13
2023-10-12T12:04:00.350Z,14.40
2023-10-12T12:06:33.318Z,13.90
2023-10-12T12:09:08.559Z,15.37
2023-10-12T12:11:39.616Z,15.37
2023-10-12T12:14:08.340Z,14.10
2023-10-12T12:16:39.388Z,13.73
2023-10-12T12:19:09.695Z,14.57
2023-10-12T12:21:43.375Z,12.93
2023-10-12T12:24:23.223Z,15.20
2023-10-12T12:26:53.416Z,15.63
2023-10-12T12:29:27.821Z,14.60
2023-10-12T12:32:05.139Z,12.10
2023-10-12T12:34:48.996Z,13.30
2023-10-12T12:37:18.816Z,13.20
2023-10-12T12:40:16.239Z,13.40
2023-10-12T12:42:45.649Z,13.37
2023-10-12T12:45:13.786Z,15.80
2023-10-12T12:47:41.981Z,10.50
2023-10-12T12:50:10.941Z,13.00
2023-10-12T12:52:41.920Z,13.23
2023-10-12T12:55:12.550Z,12.40
2023-10-12T12:57:43.253Z,14.00
2023-10-12T13:00:12.864Z,14.13
2023-10-12T13:02:40.972Z,11.23
2023-10-12T13:05:10.344Z,14.20
2023-10-12T13:07:38.509Z,13.17
2023-10-12T13:10:12.393Z,14.43
2023-10-12T13:12:45.091Z,14.70
2023-10-12T13:15:16.000Z,11.80
2023-10-12T13:17:44.177Z,12.00
2023-10-12T13:20:22.404Z,12.50
2023-10-12T13:22:51.151Z,9.80
2023-10-12T13:25:20.286Z,13.10
2023-10-12T13:27:50.906Z,9.00
2023-10-12T13:30:19.040Z,14.57
2023-10-12T13:32:49.881Z,11.30
2023-10-12T13:35:30.130Z,12.00
2023-10-12T13:38:03.996Z,10.07
2023-10-12T13:40:32.263Z,12.03
2023-10-12T13:43:15.991Z,9.80
2023-10-12T13:45:49.711Z,10.93
2023-10-12T13:48:21.798Z,11.77
2023-10-12T13:50:53.634Z,8.70
2023-10-12T13:53:24.314Z,13.00
2023-10-12T13:55:54.841Z,11.80
2023-10-12T13:58:26.244Z,12.57
2023-10-12T14:00:55.938Z,15.60
2023-10-12T14:03:30.042Z,9.90
2023-10-12T14:05:59.132Z,11.20
2023-10-12T14:08:29.640Z,12.73
2023-10-12T14:11:04.344Z,12.60
2023-10-12T14:13:34.136Z,11.20
2023-10-12T14:16:02.756Z,11.87
2023-10-12T14:18:32.233Z,10.07
2023-10-12T14:21:01.189Z,11.00
2023-10-12T14:23:30.853Z,11.90
2023-10-12T14:25:59.445Z,8.70
2023-10-12T14:28:32.834Z,10.40
2023-10-12T14:31:02.543Z,11.57
2023-10-12T14:33:32.752Z,11.87
2023-10-12T14:36:00.892Z,8.67
2023-10-12T14:38:33.494Z,12.87
2023-10-12T14:41:06.778Z,11.00
2023-10-12T14:43:36.459Z,13.80
2023-10-12T14:46:06.694Z,13.67
2023-10-12T14:48:35.149Z,9.20
2023-10-12T14:51:08.702Z,13.00
2023-10-12T14:53:37.231Z,12.10
2023-10-12T14:56:05.976Z,12.80
2023-10-12T14:58:35.620Z,11.30
2023-10-12T15:01:14.852Z,12.60
2023-10-12T15:03:46.371Z,8.77
2023-10-12T15:06:14.776Z,8.67
2023-10-12T15:08:43.964Z,9.17
2023-10-12T15:11:12.186Z,11.77
2023-10-12T15:13:42.033Z,9.30
2023-10-12T15:16:12.554Z,10.47
2023-10-12T15:18:42.738Z,6.97
2023-10-12T15:23:45.966Z,11.20
2023-10-12T15:26:17.575Z,9.77
2023-10-12T15:28:48.580Z,10.43
2023-10-12T15:31:23.427Z,12.73
2023-10-12T15:33:52.338Z,8.17
2023-10-12T15:36:20.772Z,8.37
2023-10-12T15:38:48.974Z,11.20
2023-10-12T15:41:17.094Z,9.83
2023-10-12T15:43:45.194Z,10.33
2023-10-12T15:46:13.459Z,7.00
2023-10-12T15:48:43.083Z,6.90
2023-10-12T15:51:18.798Z,9.30
2023-10-12T15:53:47.142Z,8.90
2023-10-12T15:56:17.322Z,11.60
2023-10-12T15:58:47.436Z,11.80
2023-10-12T16:01:16.424Z,6.80
2023-10-12T16:03:46.135Z,8.03
2023-10-12T16:06:15.664Z,9.17
2023-10-12T16:08:45.548Z,8.50
2023-10-12T16:11:17.797Z,8.30
2023-10-12T16:13:46.833Z,9.30
2023-10-12T16:16:16.165Z,8.20
2023-10-12T16:18:46.219Z,11.73
2023-10-12T16:21:17.453Z,8.67
2023-10-12T16:23:46.888Z,8.10
2023-10-12T16:26:16.163Z,8.70
2023-10-12T16:28:44.583Z,10.30
2023-10-12T16:31:13.216Z,10.43
2023-10-12T16:33:41.950Z,9.73
2023-10-12T16:36:13.193Z,9.60
2023-10-12T16:38:41.829Z,8.50
2023-10-12T16:41:10.211Z,10.40
2023-10-12T16:43:39.534Z,10.93
2023-10-12T16:46:08.636Z,11.33
2023-10-12T16:48:37.063Z,8.60
2023-10-12T16:51:08.710Z,10.10
2023-10-12T16:53:38.499Z,8.70
2023-10-12T16:56:11.632Z,9.80
2023-10-12T16:58:41.392Z,9.83
2023-10-12T17:01:11.283Z,11.53
2023-10-12T17:03:40.955Z,9.90
2023-10-12T17:06:09.379Z,10.77
2023-10-12T17:08:42.199Z,9.83
2023-10-12T17:11:10.551Z,10.23
2023-10-12T17:13:38.629Z,10.47
2023-10-12T17:16:06.915Z,11.27
2023-10-12T17:18:36.480Z,10.37
2023-10-12T17:21:04.912Z,9.40
2023-10-12T17:23:32.989Z,9.00
2023-10-12T17:26:02.669Z,12.13
2023-10-12T17:28:34.582Z,11.90
2023-10-12T17:31:08.429Z,11.07
2023-10-12T17:33:37.429Z,11.77
2023-10-12T17:36:12.333Z,10.90
2023-10-12T17:38:40.650Z,10.87
2023-10-12T17:41:10.677Z,12.80
2023-10-12T17:43:41.763Z,12.13
2023-10-12T17:46:10.380Z,12.03
2023-10-12T17:48:38.512Z,11.50
2023-10-12T17:51:14.193Z,12.70
2023-10-12T17:53:42.266Z,12.47
2023-10-12T17:56:13.426Z,10.30
2023-10-12T17:58:41.553Z,12.33
2023-10-12T18:01:09.955Z,13.30
2023-10-12T18:03:39.604Z,14.43
2023-10-12T18:06:11.717Z,13.43
2023-10-12T18:08:41.306Z,14.47
2023-10-12T18:11:14.656Z,12.83
2023-10-12T18:13:45.673Z,13.27
2023-10-12T18:16:15.591Z,13.40
2023-10-12T18:18:44.278Z,11.07
2023-10-12T18:21:12.462Z,13.53
2023-10-12T18:23:41.565Z,12.70
2023-10-12T18:26:11.264Z,13.37
2023-10-12T18:28:39.793Z,13.10
2023-10-12T18:31:11.522Z,11.17
2023-10-12T18:33:40.866Z,10.73
2023-10-12T18:36:10.980Z,13.17
2023-10-12T18:38:41.099Z,12.50
2023-10-12T18:41:10.817Z,11.90
2023-10-12T18:43:39.809Z,13.50
2023-10-12T18:46:09.495Z,11.23
2023-10-12T18:48:38.097Z,11.10
2023-10-12T18:51:10.663Z,11.43
2023-10-12T18:53:41.492Z,12.03
2023-10-12T18:56:11.482Z,12.27
2023-10-12T18:58:40.763Z,12.97
2023-10-12T19:01:14.337Z,11.43
2023-10-12T19:03:44.324Z,14.27
2023-10-12T19:06:14.402Z,13.17
2023-10-12T19:08:44.860Z,12.13
2023-10-12T19:11:13.424Z,11.60
2023-10-12T19:13:44.224Z,13.20
2023-10-12T19:16:15.032Z,11.97
2023-10-12T19:18:43.687Z,12.23
2023-10-12T19:21:11.933Z,13.20
2023-10-12T19:23:40.050Z,10.60
2023-10-12T19:26:09.330Z,13.90
2023-10-12T19:28:37.607Z,14.27
2023-10-12T19:31:09.820Z,12.53
2023-10-12T19:33:42.781Z,14.50
2023-10-12T19:36:11.861Z,12.57
2023-10-12T19:38:40.988Z,13.50
2023-10-12T19:41:10.660Z,14.83
2023-10-12T19:43:39.281Z,13.23
2023-10-12T19:46:11.022Z,12.27
2023-10-12T19:48:41.865Z,14.07
2023-10-12T19:51:13.553Z,12.53
2023-10-12T19:53:43.252Z,12.57
2023-10-12T19:56:13.730Z,14.10
2023-10-12T19:58:41.841Z,10.90
2023-10-12T20:01:12.292Z,13.70
2023-10-12T20:03:46.287Z,12.50
2023-10-12T20:06:14.995Z,13.63
2023-10-12T20:08:44.421Z,12.40
2023-10-12T20:11:13.237Z,11.40
2023-10-12T20:13:41.630Z,12.00
2023-10-12T20:16:12.667Z,11.87
2023-10-12T20:18:44.137Z,11.23
2023-10-12T20:21:12.261Z,15.13
2023-10-12T20:23:42.470Z,13.50
2023-10-12T20:26:12.040Z,13.80
2023-10-12T20:28:40.538Z,11.90
2023-10-12T20:31:11.370Z,13.20
2023-10-12T20:33:42.697Z,14.10
2023-10-12T20:36:10.765Z,9.97
2023-10-12T20:38:40.429Z,12.93
2023-10-12T20:41:08.732Z,11.90
2023-10-12T20:43:36.958Z,15.70
2023-10-12T20:46:10.792Z,14.00
2023-10-12T20:48:39.403Z,12.60
2023-10-12T20:51:09.559Z,12.50
2023-10-12T20:53:38.082Z,12.00
2023-10-12T20:56:27.640Z,12.07
2023-10-12T20:59:10.562Z,9.03
2023-10-12T21:01:48.100Z,10.73
2023-10-12T21:04:19.308Z,13.73
2023-10-12T21:06:49.584Z,13.00
2023-10-12T21:09:21.672Z,11.20
2023-10-12T21:11:57.854Z,11.13
2023-10-12T21:14:27.546Z,12.53
2023-10-12T21:16:58.037Z,10.90
2023-10-12T21:19:36.110Z,9.50
2023-10-12T21:22:09.136Z,11.13
2023-10-12T21:24:39.592Z,11.60
2023-10-12T21:27:10.797Z,11.77
2023-10-12T21:29:40.361Z,12.20
2023-10-12T21:32:11.207Z,12.87
2023-10-12T21:34:40.035Z,10.20
2023-10-12T21:37:12.979Z,10.23
2023-10-12T21:39:44.657Z,11.20
2023-10-12T21:42:14.517Z,13.10
2023-10-12T21:44:43.805Z,8.17
2023-10-12T21:47:12.984Z,10.83
2023-10-12T21:49:41.724Z,10.60
2023-10-12T21:52:11.242Z,10.03
2023-10-12T21:54:39.320Z,9.60
2023-10-12T21:57:10.494Z,10.00
2023-10-12T21:59:39.817Z,9.70
2023-10-12T22:02:17.378Z,8.80
2023-10-12T22:04:47.211Z,9.90
2023-10-12T22:07:17.952Z,9.90
2023-10-12T22:09:47.369Z,9.00
2023-10-12T22:12:20.722Z,10.23
2023-10-12T22:14:52.266Z,8.97
2023-10-12T22:17:27.151Z,10.83
2023-10-12T22:19:57.178Z,9.07
2023-10-12T22:22:28.489Z,9.00
2023-10-12T22:24:57.753Z,9.73
2023-10-12T22:27:28.364Z,9.07
2023-10-12T22:29:57.713Z,8.37
2023-10-12T22:32:26.071Z,8.03
2023-10-12T22:34:54.602Z,7.83
2023-10-12T22:37:23.241Z,11.00
2023-10-12T22:39:52.736Z,9.00
2023-10-12T22:42:20.837Z,8.37
2023-10-12T22:44:48.989Z,8.93
2023-10-12T22:49:48.096Z,8.13
2023-10-12T22:52:16.378Z,7.73
2023-10-12T22:54:44.476Z,8.53
2023-10-12T22:57:14.524Z,9.50
2023-10-12T22:59:42.970Z,7.03
2023-10-12T23:02:12.960Z,7.90
2023-10-12T23:04:41.444Z,7.10
2023-10-12T23:07:10.327Z,7.47
2023-10-12T23:09:38.476Z,6.57
2023-10-12T23:12:12.571Z,7.83
2023-10-12T23:14:46.044Z,7.83
2023-10-12T23:17:15.227Z,6.70
2023-10-12T23:19:45.919Z,7.20
2023-10-12T23:22:31.682Z,7.20
2023-10-12T23:25:02.351Z,7.33
2023-10-12T23:27:33.984Z,6.70
2023-10-12T23:30:12.767Z,6.53
2023-10-12T23:32:41.608Z,5.67
2023-10-12T23:35:19.351Z,6.10
2023-10-12T23:38:08.324Z,6.57
2023-10-12T23:40:48.410Z,6.20
2023-10-12T23:43:18.589Z,5.87
2023-10-12T23:45:59.496Z,6.60
2023-10-12T23:48:28.287Z,5.13
2023-10-12T23:51:04.564Z,5.60
2023-10-12T23:53:38.595Z,7.43
2023-10-12T23:56:10.459Z,6.70
2023-10-12T23:58:38.699Z,7.30
